Latest Weather Observations for Canberra

IDN60801

Issued at 4:02 am EDT Wednesday 19 December 2018 (issued every 10 minutes, with the page automatically refreshed every 10 minutes)

About weather observations | Map of weather stations | Latest weather observations for NSW | Other Formats
Station Details ID: 070351 Name: CANBERRA AIRPORT Lat: -35.31 Lon: 149.20 Height: 577.05 m
Data from the previous 72 hours. | See also: Recent months at Canberra
Date/Time
EDT
Temp
°C
App
Temp
°C
Dew
Point
°C
Rel
Hum
%
Delta-T
°C
Wind Press
QNH
hPa
Press
MSL
hPa
Rain since
9am
mm
Dir  Spd
km/h
Gust
km/h
Spd
kts
Gust
kts
19/04:00am 17.8 17.3 14.9 83 1.7 ESE 11 15 6 8 1015.3 1013.2 0.0
19/03:30am 17.9 17.4 15.0 83 1.7 ESE 11 13 6 7 1015.5 1013.4 0.0
19/03:00am 17.8 17.2 14.5 81 2.0 E 11 13 6 7 1015.6 1013.5 0.0
19/02:30am 18.0 17.0 14.7 81 2.0 ESE 13 19 7 10 1015.8 1013.7 0.0
19/02:00am 18.2 17.1 14.3 78 2.3 E 13 20 7 11 1016.3 1014.1 0.0
19/01:30am 18.3 17.2 14.4 78 2.3 E 13 19 7 10 1016.9 1014.8 0.0
19/01:00am 18.5 17.1 14.6 78 2.3 E 15 17 8 9 1017.1 1015.0 0.0
19/12:33am 18.5 17.4 14.2 76 2.5 E 13 17 7 9 1017.3 1015.2 0.0
19/12:30am 18.5 17.4 14.4 77 2.4 ESE 13 17 7 9 1017.3 1015.2 0.0
19/12:00am 18.8 17.7 14.3 75 2.7 ESE 13 17 7 9 1017.4 1015.3 0.0
 
Date/Time
EDT
Temp
°C
App
Temp
°C
Dew
Point
°C
Rel
Hum
%
Delta-T
°C
Wind Press
QNH
hPa
Press
MSL
hPa
Rain since
9am
mm
Dir  Spd
km/h
Gust
km/h
Spd
kts
Gust
kts
18/11:30pm 18.9 17.9 14.6 76 2.6 ESE 13 15 7 8 1017.5 1015.4 0.0
18/11:11pm 19.0 18.0 14.5 75 2.7 E 13 20 7 11 1017.5 1015.4 0.0
18/11:00pm 19.1 18.4 14.4 74 2.8 ESE 11 17 6 9 1017.7 1015.6 0.0
18/10:30pm 19.1 18.1 14.6 75 2.7 ESE 13 17 7 9 1017.7 1015.6 0.0
18/10:00pm 19.1 17.4 14.6 75 2.7 ESE 17 24 9 13 1017.7 1015.6 0.0
18/09:30pm 19.2 17.5 14.7 75 2.7 ESE 17 26 9 14 1017.3 1015.2 0.0
18/09:00pm 19.3 17.2 14.8 75 2.7 ESE 19 28 10 15 1017.0 1014.9 0.0
18/08:30pm 19.4 17.2 14.9 75 2.7 SE 20 30 11 16 1017.0 1014.9 0.0
18/08:00pm 19.6 18.1 15.3 76 2.6 SE 17 24 9 13 1016.6 1014.5 0.0
18/07:30pm 20.1 18.1 15.5 75 2.8 ESE 20 33 11 18 1015.9 1013.8 0.0
18/07:29pm 20.1 18.0 15.3 74 2.9 ESE 20 33 11 18 1015.8 1013.7 0.0
18/07:00pm 20.7 16.8 15.5 72 3.2 E 30 37 16 20 1015.0 1012.9 0.0
18/06:30pm 21.9 17.1 15.7 68 3.8 E 35 48 19 26 1014.1 1012.0 0.0
18/06:00pm 23.2 19.5 16.0 64 4.5 E 30 39 16 21 1013.4 1011.2 0.0
18/05:30pm 24.6 20.2 16.6 61 5.0 E 35 48 19 26 1012.9 1010.7 0.0
18/05:00pm 27.1 23.1 17.6 56 6.1 E 35 48 19 26 1012.7 1010.5 0.0
18/04:33pm 27.9 26.2 16.2 49 7.4 ENE 20 43 11 23 1012.3 1010.2 0.0
18/04:30pm 29.2 29.0 16.7 46 8.0 N 13 43 7 23 1012.2 1010.1 0.0
18/04:00pm 29.9 29.2 13.2 36 10.2 N 9 15 5 8 1012.2 1010.1 0.0
18/03:30pm 29.5 27.5 10.1 30 11.2 NNW 11 15 6 8 1012.6 1010.4 0.0
18/03:00pm 29.0 28.2 12.8 36 9.8 NW 9 13 5 7 1012.9 1010.7 0.0
18/02:30pm 28.8 27.3 13.1 38 9.5 NE 13 19 7 10 1013.3 1011.1 0.0
18/02:00pm 27.8 26.9 12.6 39 9.1 N 9 17 5 9 1013.5 1011.4 0.0
18/01:30pm 27.4 26.6 14.1 44 8.1 NW 11 24 6 13 1013.8 1011.7 0.0
18/01:00pm 26.9 25.3 14.0 45 7.9 NNW 15 20 8 11 1014.1 1012.0 0.0
18/12:30pm 25.9 24.7 14.1 48 7.2 NNE 13 19 7 10 1014.6 1012.4 0.0
18/12:00pm 25.6 26.2 15.9 55 6.1 NNW 7 19 4 10 1015.0 1012.9 0.0
18/11:30am 24.8 25.0 15.7 57 5.7 NNW 9 13 5 7 1015.4 1013.3 0.0
18/11:00am 24.0 23.8 14.7 56 5.7 NNE 9 15 5 8 1015.7 1013.6 0.0
18/10:30am 23.0 22.4 14.6 59 5.1 N 11 15 6 8 1015.7 1013.6 0.0
18/10:00am 22.3 21.8 13.9 59 5.0 NNE 9 15 5 8 1015.9 1013.8 0.0
18/09:30am 21.2 20.6 13.6 62 4.5 NE 9 15 5 8 1016.3 1014.1 0.0
18/09:00am 20.6 20.2 14.0 66 3.9 ENE 9 13 5 7 1016.6 1014.5 0.0
18/08:30am 20.3 20.3 13.7 66 3.9 E 6 11 3 6 1016.6 1014.5 0.0
18/08:00am 19.2 18.1 14.2 73 3.0 ENE 13 15 7 8 1016.6 1014.5 0.0
18/07:30am 17.8 19.0 13.7 77 2.4 CALM 0 0 0 0 1016.4 1014.2 0.0
18/07:00am 16.4 16.0 14.2 87 1.3 NNE 9 11 5 6 1015.8 1013.7 0.0
18/06:30am 15.7 17.2 14.6 93 0.6 CALM 0 0 0 0 1015.5 1013.4 0.0
18/06:00am 14.4 15.6 13.8 96 0.3 CALM 0 0 0 0 1015.1 1013.0 0.0
18/05:30am 14.6 14.7 13.8 95 0.5 SE 6 9 3 5 1014.9 1012.7 0.0
18/05:00am 15.0 14.7 14.4 96 0.4 SE 9 11 5 6 1014.7 1012.5 0.0
18/04:35am 15.0 14.3 14.4 96 0.4 SE 11 13 6 7 1014.6 1012.4 0.0
18/04:30am 15.2 14.6 14.6 96 0.4 ESE 11 13 6 7 1014.6 1012.4 0.0
18/04:00am 14.9 14.6 14.4 97 0.3 ESE 9 11 5 6 1014.4 1012.2 0.0
18/03:44am 14.8 14.5 14.3 97 0.3 ESE 9 9 5 5 1014.5 1012.3 0.0
18/03:30am 14.8 14.4 14.2 96 0.3 ESE 9 9 5 5 1014.3 1012.1 0.0
18/03:00am 15.0 15.0 14.2 95 0.5 E 7 7 4 4 1014.1 1012.0 0.0
18/02:30am 15.4 15.3 13.8 90 0.9 ESE 7 9 4 5 1014.1 1012.0 0.0
18/02:00am 16.2 16.4 14.6 90 0.9 SE 7 9 4 5 1014.5 1012.3 0.0
18/01:30am 16.5 16.6 14.5 88 1.2 SE 7 9 4 5 1014.8 1012.6 0.0
18/01:00am 17.2 17.3 14.5 84 1.6 SE 7 11 4 6 1015.0 1012.9 0.0
18/12:43am 17.7 17.5 14.8 83 1.7 SE 9 13 5 7 1015.1 1013.0 0.0
18/12:30am 17.9 17.7 14.8 82 1.8 SE 9 13 5 7 1015.1 1013.0 0.0
18/12:07am 18.0 17.9 14.9 82 1.8 SSE 9 11 5 6 1015.1 1013.0 0.0
18/12:00am 17.8 18.1 14.9 83 1.7 SE 7 11 4 6 1015.1 1013.0 0.0
 
Date/Time
EDT
Temp
°C
App
Temp
°C
Dew
Point
°C
Rel
Hum
%
Delta-T
°C
Wind Press
QNH
hPa
Press
MSL
hPa
Rain since
9am
mm
Dir  Spd
km/h
Gust
km/h
Spd
kts
Gust
kts
17/11:30pm 18.4 16.8 15.1 81 2.0 ESE 17 28 9 15 1015.1 1013.0 0.0
17/11:00pm 18.7 17.9 15.2 80 2.1 E 13 22 7 12 1014.9 1012.7 0.0
17/10:30pm 19.3 18.2 15.4 78 2.4 E 15 22 8 12 1014.7 1012.5 0.0
17/10:00pm 19.7 17.9 15.6 77 2.5 E 19 28 10 15 1014.4 1012.2 0.0
17/09:30pm 20.3 17.2 15.7 75 2.8 E 26 37 14 20 1013.8 1011.7 0.0
17/09:00pm 21.4 18.4 15.9 71 3.4 E 26 33 14 18 1013.2 1011.0 0.0
17/08:30pm 23.4 22.3 15.2 60 5.0 ESE 15 26 8 14 1012.5 1010.3 0.0
17/08:00pm 25.0 23.0 11.6 43 7.8 WNW 13 17 7 9 1011.7 1009.5 0.0
17/07:30pm 26.2 23.2 10.8 38 8.9 NW 17 20 9 11 1011.2 1009.0 0.0
17/07:00pm 27.3 24.4 10.9 36 9.5 W 17 22 9 12 1010.9 1008.7 0.0
17/06:30pm 27.5 24.4 10.2 34 9.9 WNW 17 24 9 13 1010.5 1008.4 0.0
17/06:00pm 27.6 24.8 11.2 36 9.6 WNW 17 20 9 11 1010.3 1008.1 0.0
17/05:30pm 28.0 24.9 11.5 35 9.7 W 19 28 10 15 1010.3 1008.1 0.0
17/05:00pm 27.9 24.6 11.0 35 9.9 WNW 19 26 10 14 1010.3 1008.1 0.0
17/04:30pm 27.7 25.2 10.9 35 9.8 WNW 15 20 8 11 1010.3 1008.1 0.0
17/04:00pm 27.8 24.8 12.6 39 9.1 WNW 20 28 11 15 1010.4 1008.3 0.0
17/03:30pm 28.1 25.3 12.5 38 9.3 WNW 19 26 10 14 1010.7 1008.5 0.0
17/03:00pm 27.5 23.8 11.5 37 9.4 WNW 22 30 12 16 1010.9 1008.7 0.0
17/02:30pm 27.6 24.3 11.6 37 9.4 WNW 20 32 11 17 1010.8 1008.6 0.0
17/02:00pm 27.2 23.7 10.8 36 9.5 W 20 30 11 16 1010.8 1008.6 0.0
17/01:30pm 27.1 24.0 11.6 38 9.1 W 19 32 10 17 1010.9 1008.7 0.0
17/01:00pm 26.1 22.0 11.5 40 8.5 NNW 24 37 13 20 1011.2 1009.0 0.0
17/12:30pm 25.0 21.7 10.8 41 8.2 NW 19 28 10 15 1011.4 1009.2 0.0
17/12:00pm 25.5 22.1 12.4 44 7.7 NW 22 35 12 19 1011.5 1009.3 0.0
17/11:30am 24.7 21.3 10.6 41 8.1 NW 19 30 10 16 1011.8 1009.6 0.0
17/11:00am 24.6 20.8 11.2 43 7.7 NW 22 32 12 17 1011.9 1009.8 0.0
17/10:30am 23.9 20.9 10.6 43 7.6 NW 17 22 9 12 1012.0 1009.9 0.0
17/10:00am 23.7 20.6 11.7 47 7.0 NW 19 28 10 15 1012.2 1010.1 0.0
17/09:30am 22.7 20.1 10.8 47 6.8 NW 15 24 8 13 1012.1 1010.0 0.0
17/09:00am 20.7 20.5 11.9 57 5.0 NNW 4 9 2 5 1012.5 1010.3 0.0
17/08:30am 19.2 19.2 11.0 59 4.6 WSW 2 7 1 4 1012.2 1010.1 0.0
17/08:00am 17.6 17.8 10.7 64 3.8 CALM 0 4 0 2 1012.2 1010.1 0.0
17/07:30am 15.3 15.6 10.9 75 2.4 CALM 0 0 0 0 1011.9 1009.8 0.0
17/07:00am 13.1 12.0 10.6 85 1.3 NE 7 9 4 5 1011.5 1009.3 0.0
17/06:30am 12.7 12.9 10.4 86 1.2 CALM 0 0 0 0 1011.2 1009.0 0.0
17/06:00am 10.9 10.4 9.3 90 0.8 NE 2 6 1 3 1011.2 1009.0 0.0
17/05:30am 11.1 11.0 9.5 90 0.8 CALM 0 0 0 0 1010.8 1008.6 0.0
17/05:00am 11.0 11.0 9.9 93 0.6 CALM 0 0 0 0 1010.5 1008.4 0.0
17/04:30am 11.2 11.2 9.8 91 0.7 CALM 0 0 0 0 1010.2 1008.0 0.0
17/04:00am 11.3 11.3 9.7 90 0.8 CALM 0 0 0 0 1010.1 1007.9 0.0
17/03:30am 11.3 11.3 9.7 90 0.8 CALM 0 0 0 0 1010.0 1007.8 0.0
17/03:00am 12.3 12.4 10.2 87 1.1 CALM 0 0 0 0 1010.0 1007.8 0.0
17/02:30am 12.2 12.3 10.1 87 1.1 CALM 0 0 0 0 1009.9 1007.7 0.0
17/02:00am 13.0 13.2 10.5 85 1.3 CALM 0 0 0 0 1010.1 1007.9 0.0
17/01:30am 12.5 11.4 10.6 88 1.0 NE 7 9 4 5 1010.1 1007.9 0.0
17/01:00am 13.1 13.4 11.0 87 1.1 CALM 0 0 0 0 1010.2 1008.0 0.0
17/12:30am 13.9 13.0 10.7 81 1.7 NE 6 9 3 5 1010.2 1008.0 0.0
17/12:00am 14.0 13.1 10.8 81 1.7 NE 6 11 3 6 1010.1 1007.9 0.0
 
Date/Time
EDT
Temp
°C
App
Temp
°C
Dew
Point
°C
Rel
Hum
%
Delta-T
°C
Wind Press
QNH
hPa
Press
MSL
hPa
Rain since
9am
mm
Dir  Spd
km/h
Gust
km/h
Spd
kts
Gust
kts
16/11:30pm 15.1 14.1 10.9 76 2.3 NE 7 7 4 4 1010.3 1008.1 0.0
16/11:00pm 15.1 14.1 10.9 76 2.3 NE 7 9 4 5 1010.1 1007.9 0.0
16/10:30pm 15.2 15.6 11.2 77 2.2 CALM 0 0 0 0 1009.8 1007.6 0.0
16/10:00pm 16.5 15.1 11.0 70 3.0 ENE 9 11 5 6 1009.7 1007.5 0.0
16/09:30pm 17.6 16.5 10.7 64 3.8 E 7 9 4 5 1009.5 1007.3 0.0
16/09:00pm 20.4 18.7 9.9 51 5.8 WNW 9 13 5 7 1009.1 1006.9 0.0
16/08:30pm 21.6 18.7 9.8 47 6.5 W 15 19 8 10 1008.8 1006.5 0.0
16/08:00pm 22.8 19.5 9.6 43 7.4 W 17 26 9 14 1008.5 1006.3 0.0
16/07:30pm 24.0 20.7 9.6 40 8.1 W 17 19 9 10 1008.2 1006.0 0.0
16/07:00pm 24.6 19.8 9.0 37 8.7 WNW 24 33 13 18 1008.0 1005.8 0.0
16/06:30pm 24.2 20.2 9.0 38 8.4 WNW 20 35 11 19 1007.8 1005.6 0.0
16/06:00pm 25.6 23.0 12.1 43 8.0 WNW 17 22 9 12 1007.5 1005.3 0.0
16/05:30pm 25.1 21.0 11.6 42 7.9 W 24 35 13 19 1007.5 1005.3 0.0
16/05:00pm 25.0 21.4 11.9 44 7.7 WNW 22 33 12 18 1007.5 1005.3 0.0
16/04:30pm 24.3 21.1 11.9 45 7.2 W 20 28 11 15 1007.5 1005.3 0.0
16/04:00pm 24.9 20.7 12.5 46 7.3 W 26 37 14 20 1007.6 1005.4 0.0
16/03:30pm 25.7 19.8 10.3 38 8.8 NW 32 52 17 28 1007.4 1005.2 0.0
16/03:11pm 25.7 20.1 10.3 38 8.8 NW 30 50 16 27 1007.4 1005.2 0.0
16/03:00pm 26.1 20.4 9.9 36 9.2 NNW 30 44 16 24 1007.4 1005.2 0.0
16/02:34pm 26.8 20.8 10.1 35 9.6 NW 32 50 17 27 1007.5 1005.3 0.0
16/02:30pm 26.7 21.3 10.8 37 9.2 NW 30 39 16 21 1007.4 1005.2 0.0
16/02:04pm 26.3 20.3 10.0 36 9.3 NW 32 50 17 27 1007.4 1005.2 0.0
16/02:00pm 26.7 20.1 10.0 35 9.6 NW 35 50 19 27 1007.5 1005.3 0.0
16/01:55pm 27.0 21.2 10.7 36 9.4 NNW 32 50 17 27 1007.4 1005.2 0.0
16/01:30pm 26.8 21.6 10.1 35 9.6 NNW 28 39 15 21 1007.8 1005.6 0.0
16/01:00pm 26.2 21.0 10.4 37 9.1 NW 28 39 15 21 1008.1 1005.9 0.0
16/12:31pm 25.8 20.5 10.0 37 9.0 NW 28 46 15 25 1008.4 1006.2 0.0
16/12:30pm 25.7 19.8 9.1 35 9.3 NW 30 46 16 25 1008.4 1006.2 0.0
16/12:26pm 25.9 20.6 9.7 36 9.2 NW 28 46 15 25 1008.5 1006.3 0.0
16/12:00pm 24.9 19.7 10.4 40 8.3 NW 28 37 15 20 1008.8 1006.5 0.0
16/11:30am 24.0 19.8 8.4 37 8.5 NW 20 30 11 16 1009.1 1006.9 0.0
16/11:00am 23.9 20.5 10.6 43 7.6 WNW 19 28 10 15 1009.2 1007.0 0.0
16/10:30am 23.2 19.0 9.6 42 7.6 NNW 22 30 12 16 1009.3 1007.1 0.0
16/10:00am 22.1 19.7 12.6 55 5.6 NW 17 24 9 13 1009.5 1007.3 0.0
16/09:30am 21.6 19.5 13.5 60 4.8 WNW 17 22 9 12 1009.4 1007.2 0.0
16/09:00am 21.6 20.3 12.5 56 5.3 WNW 11 20 6 11 1009.3 1007.1 0.0
16/08:30am 20.7 20.6 13.9 65 4.0 N 7 11 4 6 1009.3 1007.1 0.0
16/08:00am 18.9 20.5 15.0 78 2.3 CALM 0 0 0 0 1009.3 1007.1 0.0
16/07:30am 18.0 19.7 15.1 83 1.7 CALM 0 0 0 0 1009.0 1006.8 0.0
16/07:00am 16.6 18.5 15.8 95 0.5 CALM 0 0 0 0 1008.6 1006.4 0.0
16/06:30am 14.8 15.1 14.6 99 0.1 ESE 6 7 3 4 1008.4 1006.2 0.0
16/06:00am 13.8 13.6 13.6 99 0.1 ESE 7 9 4 5 1008.0 1005.8 0.0
16/05:30am 13.7 13.5 13.5 99 0.1 ENE 7 11 4 6 1007.6 1005.4 0.0
16/05:00am 14.0 15.2 13.7 98 0.2 CALM 0 0 0 0 1007.3 1005.0 0.0
16/04:30am 14.6 14.6 14.3 98 0.2 NNW 7 9 4 5 1007.0 1004.7 0.0

Other Formats:

Comma delimited format used in spreadsheet applications
http://www.bom.gov.au/fwo/IDN60801/IDN60801.94926.axf

JavaScript Object Notation format (JSON) in row-major order
http://www.bom.gov.au/fwo/IDN60801/IDN60801.94926.json